sensor_id;sensor_type;location;lat;lon;timestamp;P1;durP1;ratioP1;P2;durP2;ratioP2
64353;SDS011;50681;53.334;-6.536;2024-01-10T00:01:01;16.63;;;3.05;;
64353;SDS011;50681;53.334;-6.536;2024-01-10T00:03:27;15.75;;;3.50;;
64353;SDS011;50681;53.334;-6.536;2024-01-10T00:05:53;15.90;;;3.20;;
64353;SDS011;50681;53.334;-6.536;2024-01-10T00:08:18;26.50;;;2.60;;
64353;SDS011;50681;53.334;-6.536;2024-01-10T00:10:44;13.83;;;3.17;;
64353;SDS011;50681;53.334;-6.536;2024-01-10T00:13:10;14.53;;;2.97;;
64353;SDS011;50681;53.334;-6.536;2024-01-10T00:15:35;19.43;;;2.90;;
64353;SDS011;50681;53.334;-6.536;2024-01-10T00:18:00;23.13;;;3.60;;
64353;SDS011;50681;53.334;-6.536;2024-01-10T00:20:26;17.53;;;3.53;;
64353;SDS011;50681;53.334;-6.536;2024-01-10T00:22:51;13.00;;;2.67;;
64353;SDS011;50681;53.334;-6.536;2024-01-10T00:25:17;13.57;;;3.30;;
64353;SDS011;50681;53.334;-6.536;2024-01-10T00:27:42;19.13;;;3.10;;
64353;SDS011;50681;53.334;-6.536;2024-01-10T00:30:08;6.43;;;2.90;;
64353;SDS011;50681;53.334;-6.536;2024-01-10T00:32:33;21.00;;;2.80;;
64353;SDS011;50681;53.334;-6.536;2024-01-10T00:34:59;15.73;;;2.40;;
64353;SDS011;50681;53.334;-6.536;2024-01-10T00:37:24;9.27;;;2.30;;
64353;SDS011;50681;53.334;-6.536;2024-01-10T00:39:49;35.73;;;3.77;;
64353;SDS011;50681;53.334;-6.536;2024-01-10T00:42:15;16.23;;;2.53;;
64353;SDS011;50681;53.334;-6.536;2024-01-10T00:44:40;29.03;;;3.20;;
64353;SDS011;50681;53.334;-6.536;2024-01-10T00:47:06;14.83;;;2.60;;
64353;SDS011;50681;53.334;-6.536;2024-01-10T00:49:31;15.50;;;2.80;;
64353;SDS011;50681;53.334;-6.536;2024-01-10T00:51:56;19.23;;;2.70;;
64353;SDS011;50681;53.334;-6.536;2024-01-10T00:54:22;13.90;;;2.73;;
64353;SDS011;50681;53.334;-6.536;2024-01-10T00:56:47;25.67;;;2.80;;
64353;SDS011;50681;53.334;-6.536;2024-01-10T00:59:15;19.13;;;2.80;;
64353;SDS011;50681;53.334;-6.536;2024-01-10T01:01:40;16.40;;;2.57;;
64353;SDS011;50681;53.334;-6.536;2024-01-10T01:04:06;17.07;;;2.73;;
64353;SDS011;50681;53.334;-6.536;2024-01-10T01:06:31;8.67;;;2.43;;
64353;SDS011;50681;53.334;-6.536;2024-01-10T01:08:56;19.20;;;3.33;;
64353;SDS011;50681;53.334;-6.536;2024-01-10T01:11:23;14.93;;;3.05;;
64353;SDS011;50681;53.334;-6.536;2024-01-10T01:13:49;13.77;;;3.00;;
64353;SDS011;50681;53.334;-6.536;2024-01-10T01:16:14;18.67;;;2.70;;
64353;SDS011;50681;53.334;-6.536;2024-01-10T01:18:39;11.43;;;2.43;;
64353;SDS011;50681;53.334;-6.536;2024-01-10T01:21:05;12.30;;;2.30;;
64353;SDS011;50681;53.334;-6.536;2024-01-10T01:23:30;20.77;;;2.80;;
64353;SDS011;50681;53.334;-6.536;2024-01-10T01:25:56;8.90;;;2.60;;
64353;SDS011;50681;53.334;-6.536;2024-01-10T01:28:21;13.43;;;2.37;;
64353;SDS011;50681;53.334;-6.536;2024-01-10T01:30:47;11.00;;;2.40;;
64353;SDS011;50681;53.334;-6.536;2024-01-10T01:33:12;14.20;;;2.00;;
64353;SDS011;50681;53.334;-6.536;2024-01-10T01:35:38;17.02;;;2.72;;
64353;SDS011;50681;53.334;-6.536;2024-01-10T01:38:04;20.13;;;3.30;;
64353;SDS011;50681;53.334;-6.536;2024-01-10T01:40:30;10.93;;;1.90;;
64353;SDS011;50681;53.334;-6.536;2024-01-10T01:42:55;7.72;;;1.98;;
64353;SDS011;50681;53.334;-6.536;2024-01-10T01:45:21;9.80;;;2.70;;
64353;SDS011;50681;53.334;-6.536;2024-01-10T01:47:46;13.23;;;2.37;;
64353;SDS011;50681;53.334;-6.536;2024-01-10T01:50:12;12.37;;;2.10;;
64353;SDS011;50681;53.334;-6.536;2024-01-10T01:52:37;13.53;;;2.57;;
64353;SDS011;50681;53.334;-6.536;2024-01-10T01:55:04;12.32;;;1.85;;
64353;SDS011;50681;53.334;-6.536;2024-01-10T01:57:31;9.63;;;2.70;;
64353;SDS011;50681;53.334;-6.536;2024-01-10T01:59:57;10.13;;;1.80;;
64353;SDS011;50681;53.334;-6.536;2024-01-10T02:02:23;13.98;;;2.22;;
64353;SDS011;50681;53.334;-6.536;2024-01-10T02:04:49;12.05;;;2.13;;
64353;SDS011;50681;53.334;-6.536;2024-01-10T02:07:15;12.13;;;2.85;;
64353;SDS011;50681;53.334;-6.536;2024-01-10T02:09:41;7.07;;;2.00;;
64353;SDS011;50681;53.334;-6.536;2024-01-10T02:12:06;9.50;;;1.97;;
64353;SDS011;50681;53.334;-6.536;2024-01-10T02:14:32;12.80;;;2.07;;
64353;SDS011;50681;53.334;-6.536;2024-01-10T02:16:57;14.97;;;2.53;;
64353;SDS011;50681;53.334;-6.536;2024-01-10T02:19:23;15.47;;;1.90;;
64353;SDS011;50681;53.334;-6.536;2024-01-10T02:21:49;25.92;;;2.60;;
64353;SDS011;50681;53.334;-6.536;2024-01-10T02:24:14;11.87;;;2.30;;
64353;SDS011;50681;53.334;-6.536;2024-01-10T02:26:40;4.20;;;1.77;;
64353;SDS011;50681;53.334;-6.536;2024-01-10T02:29:06;13.63;;;2.17;;
64353;SDS011;50681;53.334;-6.536;2024-01-10T02:31:31;13.30;;;2.30;;
64353;SDS011;50681;53.334;-6.536;2024-01-10T02:33:57;10.03;;;2.20;;
64353;SDS011;50681;53.334;-6.536;2024-01-10T02:36:22;8.37;;;2.30;;
64353;SDS011;50681;53.334;-6.536;2024-01-10T02:38:48;11.23;;;1.93;;
64353;SDS011;50681;53.334;-6.536;2024-01-10T02:41:13;8.67;;;2.37;;
64353;SDS011;50681;53.334;-6.536;2024-01-10T02:43:38;7.53;;;1.50;;
64353;SDS011;50681;53.334;-6.536;2024-01-10T02:46:04;12.27;;;1.97;;
64353;SDS011;50681;53.334;-6.536;2024-01-10T02:48:30;14.00;;;2.67;;
64353;SDS011;50681;53.334;-6.536;2024-01-10T02:50:55;11.83;;;2.10;;
64353;SDS011;50681;53.334;-6.536;2024-01-10T02:53:21;10.80;;;2.33;;
64353;SDS011;50681;53.334;-6.536;2024-01-10T02:55:46;17.85;;;2.60;;
64353;SDS011;50681;53.334;-6.536;2024-01-10T02:58:13;8.48;;;2.13;;
64353;SDS011;50681;53.334;-6.536;2024-01-10T03:00:38;10.60;;;1.90;;
64353;SDS011;50681;53.334;-6.536;2024-01-10T03:03:04;15.47;;;2.10;;
64353;SDS011;50681;53.334;-6.536;2024-01-10T03:05:29;14.57;;;2.30;;
64353;SDS011;50681;53.334;-6.536;2024-01-10T03:07:56;7.53;;;1.93;;
64353;SDS011;50681;53.334;-6.536;2024-01-10T03:10:22;11.03;;;1.97;;
64353;SDS011;50681;53.334;-6.536;2024-01-10T03:12:47;15.40;;;2.23;;
64353;SDS011;50681;53.334;-6.536;2024-01-10T03:15:13;10.47;;;1.83;;
64353;SDS011;50681;53.334;-6.536;2024-01-10T03:17:38;12.67;;;2.07;;
64353;SDS011;50681;53.334;-6.536;2024-01-10T03:20:04;15.87;;;1.60;;
64353;SDS011;50681;53.334;-6.536;2024-01-10T03:22:30;7.90;;;1.80;;
64353;SDS011;50681;53.334;-6.536;2024-01-10T03:24:57;11.27;;;1.90;;
64353;SDS011;50681;53.334;-6.536;2024-01-10T03:27:23;8.73;;;2.27;;
64353;SDS011;50681;53.334;-6.536;2024-01-10T03:29:48;9.67;;;1.80;;
64353;SDS011;50681;53.334;-6.536;2024-01-10T03:32:14;10.17;;;1.97;;
64353;SDS011;50681;53.334;-6.536;2024-01-10T03:34:40;15.97;;;2.20;;
64353;SDS011;50681;53.334;-6.536;2024-01-10T03:37:07;7.00;;;2.10;;
64353;SDS011;50681;53.334;-6.536;2024-01-10T03:39:33;13.70;;;2.07;;
64353;SDS011;50681;53.334;-6.536;2024-01-10T03:42:00;11.47;;;2.17;;
64353;SDS011;50681;53.334;-6.536;2024-01-10T03:44:26;7.43;;;1.60;;
64353;SDS011;50681;53.334;-6.536;2024-01-10T03:46:52;10.82;;;1.90;;
64353;SDS011;50681;53.334;-6.536;2024-01-10T03:49:18;14.60;;;2.53;;
64353;SDS011;50681;53.334;-6.536;2024-01-10T03:51:43;5.33;;;1.30;;
64353;SDS011;50681;53.334;-6.536;2024-01-10T03:54:11;6.40;;;1.27;;
64353;SDS011;50681;53.334;-6.536;2024-01-10T03:56:37;7.93;;;1.43;;
64353;SDS011;50681;53.334;-6.536;2024-01-10T03:59:03;7.73;;;1.60;;
64353;SDS011;50681;53.334;-6.536;2024-01-10T04:01:28;3.70;;;1.40;;
64353;SDS011;50681;53.334;-6.536;2024-01-10T04:03:53;18.57;;;2.17;;
64353;SDS011;50681;53.334;-6.536;2024-01-10T04:06:19;22.13;;;4.97;;
64353;SDS011;50681;53.334;-6.536;2024-01-10T04:08:44;4.87;;;1.43;;
64353;SDS011;50681;53.334;-6.536;2024-01-10T04:11:10;6.90;;;1.80;;
64353;SDS011;50681;53.334;-6.536;2024-01-10T04:13:35;9.60;;;1.70;;
64353;SDS011;50681;53.334;-6.536;2024-01-10T04:16:01;7.20;;;1.33;;
64353;SDS011;50681;53.334;-6.536;2024-01-10T04:18:26;4.93;;;1.63;;
64353;SDS011;50681;53.334;-6.536;2024-01-10T04:20:51;4.20;;;1.20;;
64353;SDS011;50681;53.334;-6.536;2024-01-10T04:23:17;16.10;;;2.00;;
64353;SDS011;50681;53.334;-6.536;2024-01-10T04:25:42;13.80;;;1.50;;
64353;SDS011;50681;53.334;-6.536;2024-01-10T04:28:08;13.20;;;1.67;;
64353;SDS011;50681;53.334;-6.536;2024-01-10T04:30:33;16.27;;;2.30;;
64353;SDS011;50681;53.334;-6.536;2024-01-10T04:32:59;5.93;;;1.33;;
64353;SDS011;50681;53.334;-6.536;2024-01-10T04:35:24;13.53;;;1.83;;
64353;SDS011;50681;53.334;-6.536;2024-01-10T04:37:50;4.10;;;1.27;;
64353;SDS011;50681;53.334;-6.536;2024-01-10T04:40:15;6.30;;;1.63;;
64353;SDS011;50681;53.334;-6.536;2024-01-10T04:42:41;8.93;;;1.63;;
64353;SDS011;50681;53.334;-6.536;2024-01-10T04:45:06;8.83;;;2.40;;
64353;SDS011;50681;53.334;-6.536;2024-01-10T04:47:32;9.00;;;1.45;;
64353;SDS011;50681;53.334;-6.536;2024-01-10T04:49:58;7.33;;;1.37;;
64353;SDS011;50681;53.334;-6.536;2024-01-10T04:52:23;14.20;;;2.00;;
64353;SDS011;50681;53.334;-6.536;2024-01-10T04:54:49;12.77;;;2.73;;
64353;SDS011;50681;53.334;-6.536;2024-01-10T04:57:14;7.00;;;1.75;;
64353;SDS011;50681;53.334;-6.536;2024-01-10T04:59:41;9.38;;;1.50;;
64353;SDS011;50681;53.334;-6.536;2024-01-10T05:02:06;3.87;;;1.33;;
64353;SDS011;50681;53.334;-6.536;2024-01-10T05:04:32;8.05;;;1.42;;
64353;SDS011;50681;53.334;-6.536;2024-01-10T05:06:57;7.10;;;1.40;;
64353;SDS011;50681;53.334;-6.536;2024-01-10T05:09:23;6.23;;;1.80;;
64353;SDS011;50681;53.334;-6.536;2024-01-10T05:11:48;8.17;;;1.73;;
64353;SDS011;50681;53.334;-6.536;2024-01-10T05:14:16;13.17;;;1.53;;
64353;SDS011;50681;53.334;-6.536;2024-01-10T05:16:44;7.17;;;1.47;;
64353;SDS011;50681;53.334;-6.536;2024-01-10T05:19:10;8.40;;;2.00;;
64353;SDS011;50681;53.334;-6.536;2024-01-10T05:21:35;15.17;;;2.20;;
64353;SDS011;50681;53.334;-6.536;2024-01-10T05:24:01;7.83;;;1.20;;
64353;SDS011;50681;53.334;-6.536;2024-01-10T05:26:26;8.27;;;1.67;;
64353;SDS011;50681;53.334;-6.536;2024-01-10T05:28:52;5.73;;;1.37;;
64353;SDS011;50681;53.334;-6.536;2024-01-10T05:31:17;8.80;;;1.87;;
64353;SDS011;50681;53.334;-6.536;2024-01-10T05:33:43;9.03;;;1.50;;
64353;SDS011;50681;53.334;-6.536;2024-01-10T05:36:09;8.00;;;1.60;;
64353;SDS011;50681;53.334;-6.536;2024-01-10T05:38:37;6.00;;;1.10;;
64353;SDS011;50681;53.334;-6.536;2024-01-10T05:41:03;6.97;;;1.63;;
64353;SDS011;50681;53.334;-6.536;2024-01-10T05:43:29;21.33;;;1.75;;
64353;SDS011;50681;53.334;-6.536;2024-01-10T05:45:54;15.30;;;1.60;;
64353;SDS011;50681;53.334;-6.536;2024-01-10T05:48:19;12.17;;;1.60;;
64353;SDS011;50681;53.334;-6.536;2024-01-10T05:50:45;5.57;;;1.00;;
64353;SDS011;50681;53.334;-6.536;2024-01-10T05:53:10;10.87;;;1.50;;
64353;SDS011;50681;53.334;-6.536;2024-01-10T05:55:37;9.93;;;1.70;;
64353;SDS011;50681;53.334;-6.536;2024-01-10T05:58:03;8.63;;;1.40;;
64353;SDS011;50681;53.334;-6.536;2024-01-10T06:00:29;9.97;;;1.50;;
64353;SDS011;50681;53.334;-6.536;2024-01-10T06:02:54;20.00;;;3.07;;
64353;SDS011;50681;53.334;-6.536;2024-01-10T06:05:20;5.13;;;0.97;;
64353;SDS011;50681;53.334;-6.536;2024-01-10T06:07:45;9.57;;;1.27;;
64353;SDS011;50681;53.334;-6.536;2024-01-10T06:10:10;11.93;;;1.73;;
64353;SDS011;50681;53.334;-6.536;2024-01-10T06:12:36;9.20;;;1.37;;
64353;SDS011;50681;53.334;-6.536;2024-01-10T06:15:03;4.27;;;1.17;;
64353;SDS011;50681;53.334;-6.536;2024-01-10T06:17:29;5.32;;;1.20;;
64353;SDS011;50681;53.334;-6.536;2024-01-10T06:19:56;6.03;;;1.50;;
64353;SDS011;50681;53.334;-6.536;2024-01-10T06:22:24;4.70;;;1.20;;
64353;SDS011;50681;53.334;-6.536;2024-01-10T06:24:50;11.32;;;1.27;;
64353;SDS011;50681;53.334;-6.536;2024-01-10T06:27:15;7.80;;;0.93;;
64353;SDS011;50681;53.334;-6.536;2024-01-10T06:29:42;6.82;;;0.95;;
64353;SDS011;50681;53.334;-6.536;2024-01-10T06:32:07;20.03;;;1.87;;
64353;SDS011;50681;53.334;-6.536;2024-01-10T06:34:32;8.57;;;1.50;;
64353;SDS011;50681;53.334;-6.536;2024-01-10T06:36:58;14.35;;;2.20;;
64353;SDS011;50681;53.334;-6.536;2024-01-10T06:39:24;6.97;;;1.03;;
64353;SDS011;50681;53.334;-6.536;2024-01-10T06:41:49;4.57;;;1.10;;
64353;SDS011;50681;53.334;-6.536;2024-01-10T06:44:15;7.57;;;1.20;;
64353;SDS011;50681;53.334;-6.536;2024-01-10T06:46:44;4.50;;;1.00;;
64353;SDS011;50681;53.334;-6.536;2024-01-10T06:49:10;4.57;;;1.00;;
64353;SDS011;50681;53.334;-6.536;2024-01-10T06:51:43;6.55;;;1.10;;
64353;SDS011;50681;53.334;-6.536;2024-01-10T06:54:09;6.43;;;1.30;;
64353;SDS011;50681;53.334;-6.536;2024-01-10T06:56:38;21.25;;;1.45;;
64353;SDS011;50681;53.334;-6.536;2024-01-10T06:59:04;10.67;;;1.47;;
64353;SDS011;50681;53.334;-6.536;2024-01-10T07:01:29;5.43;;;1.17;;
64353;SDS011;50681;53.334;-6.536;2024-01-10T07:03:55;10.32;;;1.50;;
64353;SDS011;50681;53.334;-6.536;2024-01-10T07:06:21;4.55;;;0.80;;
64353;SDS011;50681;53.334;-6.536;2024-01-10T07:08:48;11.57;;;1.20;;
64353;SDS011;50681;53.334;-6.536;2024-01-10T07:11:17;5.10;;;1.00;;
64353;SDS011;50681;53.334;-6.536;2024-01-10T07:13:46;3.83;;;1.20;;
64353;SDS011;50681;53.334;-6.536;2024-01-10T07:16:12;15.50;;;1.77;;
64353;SDS011;50681;53.334;-6.536;2024-01-10T07:18:40;7.97;;;0.97;;
64353;SDS011;50681;53.334;-6.536;2024-01-10T07:21:06;4.05;;;1.05;;
64353;SDS011;50681;53.334;-6.536;2024-01-10T07:23:34;4.80;;;1.00;;
64353;SDS011;50681;53.334;-6.536;2024-01-10T07:26:05;8.15;;;1.50;;
64353;SDS011;50681;53.334;-6.536;2024-01-10T07:28:34;7.10;;;0.90;;
64353;SDS011;50681;53.334;-6.536;2024-01-10T07:31:03;7.27;;;1.47;;
64353;SDS011;50681;53.334;-6.536;2024-01-10T07:33:32;5.97;;;1.40;;
64353;SDS011;50681;53.334;-6.536;2024-01-10T07:35:58;5.57;;;0.70;;
64353;SDS011;50681;53.334;-6.536;2024-01-10T07:38:25;4.77;;;1.40;;
64353;SDS011;50681;53.334;-6.536;2024-01-10T07:40:51;7.63;;;1.00;;
64353;SDS011;50681;53.334;-6.536;2024-01-10T07:43:17;6.00;;;1.10;;
64353;SDS011;50681;53.334;-6.536;2024-01-10T07:45:42;7.37;;;1.27;;
64353;SDS011;50681;53.334;-6.536;2024-01-10T07:48:08;3.45;;;0.93;;
64353;SDS011;50681;53.334;-6.536;2024-01-10T07:50:36;2.13;;;0.70;;
64353;SDS011;50681;53.334;-6.536;2024-01-10T07:53:02;5.82;;;0.88;;
64353;SDS011;50681;53.334;-6.536;2024-01-10T07:55:28;5.53;;;0.98;;
64353;SDS011;50681;53.334;-6.536;2024-01-10T07:57:56;7.22;;;1.50;;
64353;SDS011;50681;53.334;-6.536;2024-01-10T08:00:23;11.52;;;1.23;;
64353;SDS011;50681;53.334;-6.536;2024-01-10T08:02:48;1.85;;;0.52;;
64353;SDS011;50681;53.334;-6.536;2024-01-10T08:05:20;7.47;;;0.88;;
64353;SDS011;50681;53.334;-6.536;2024-01-10T08:10:13;12.05;;;1.40;;
64353;SDS011;50681;53.334;-6.536;2024-01-10T08:12:40;10.68;;;1.40;;
64353;SDS011;50681;53.334;-6.536;2024-01-10T08:17:33;8.47;;;1.27;;
64353;SDS011;50681;53.334;-6.536;2024-01-10T08:22:35;15.25;;;1.33;;
64353;SDS011;50681;53.334;-6.536;2024-01-10T08:25:02;9.25;;;1.77;;
64353;SDS011;50681;53.334;-6.536;2024-01-10T08:27:28;10.18;;;1.63;;
64353;SDS011;50681;53.334;-6.536;2024-01-10T08:29:55;7.30;;;1.58;;
64353;SDS011;50681;53.334;-6.536;2024-01-10T08:32:21;5.43;;;1.20;;
64353;SDS011;50681;53.334;-6.536;2024-01-10T08:34:47;9.35;;;1.40;;
64353;SDS011;50681;53.334;-6.536;2024-01-10T08:39:52;8.25;;;1.05;;
64353;SDS011;50681;53.334;-6.536;2024-01-10T08:42:18;3.80;;;0.70;;
64353;SDS011;50681;53.334;-6.536;2024-01-10T08:44:45;5.05;;;0.90;;
64353;SDS011;50681;53.334;-6.536;2024-01-10T08:47:14;7.53;;;1.30;;
64353;SDS011;50681;53.334;-6.536;2024-01-10T08:49:41;3.17;;;0.98;;
64353;SDS011;50681;53.334;-6.536;2024-01-10T08:52:06;4.10;;;0.93;;
64353;SDS011;50681;53.334;-6.536;2024-01-10T08:54:33;6.85;;;1.10;;
64353;SDS011;50681;53.334;-6.536;2024-01-10T08:56:59;7.28;;;1.45;;
64353;SDS011;50681;53.334;-6.536;2024-01-10T08:59:25;6.05;;;1.02;;
64353;SDS011;50681;53.334;-6.536;2024-01-10T09:02:00;12.80;;;1.55;;
64353;SDS011;50681;53.334;-6.536;2024-01-10T09:04:30;4.25;;;0.80;;
64353;SDS011;50681;53.334;-6.536;2024-01-10T09:07:00;3.53;;;0.85;;
64353;SDS011;50681;53.334;-6.536;2024-01-10T09:09:27;11.10;;;1.38;;
64353;SDS011;50681;53.334;-6.536;2024-01-10T09:11:56;8.02;;;1.17;;
64353;SDS011;50681;53.334;-6.536;2024-01-10T09:16:48;7.13;;;1.00;;
64353;SDS011;50681;53.334;-6.536;2024-01-10T09:19:14;8.63;;;0.90;;
64353;SDS011;50681;53.334;-6.536;2024-01-10T09:21:40;4.43;;;0.68;;
64353;SDS011;50681;53.334;-6.536;2024-01-10T09:24:07;4.65;;;1.10;;
64353;SDS011;50681;53.334;-6.536;2024-01-10T09:26:36;5.28;;;1.08;;
64353;SDS011;50681;53.334;-6.536;2024-01-10T09:29:06;4.25;;;0.95;;
64353;SDS011;50681;53.334;-6.536;2024-01-10T09:34:06;5.57;;;1.23;;
64353;SDS011;50681;53.334;-6.536;2024-01-10T09:36:36;6.05;;;0.98;;
64353;SDS011;50681;53.334;-6.536;2024-01-10T09:39:12;4.88;;;1.13;;
64353;SDS011;50681;53.334;-6.536;2024-01-10T09:41:45;9.07;;;1.20;;
64353;SDS011;50681;53.334;-6.536;2024-01-10T09:44:17;6.63;;;1.35;;
64353;SDS011;50681;53.334;-6.536;2024-01-10T09:49:29;6.72;;;0.88;;
64353;SDS011;50681;53.334;-6.536;2024-01-10T09:51:59;3.38;;;1.00;;
64353;SDS011;50681;53.334;-6.536;2024-01-10T09:54:30;10.73;;;1.42;;
64353;SDS011;50681;53.334;-6.536;2024-01-10T09:56:57;9.57;;;2.38;;
64353;SDS011;50681;53.334;-6.536;2024-01-10T09:59:24;5.10;;;0.88;;
64353;SDS011;50681;53.334;-6.536;2024-01-10T10:01:56;7.55;;;1.10;;
64353;SDS011;50681;53.334;-6.536;2024-01-10T10:04:32;6.47;;;1.10;;
64353;SDS011;50681;53.334;-6.536;2024-01-10T10:07:02;7.47;;;0.90;;
64353;SDS011;50681;53.334;-6.536;2024-01-10T10:09:28;2.63;;;0.82;;
64353;SDS011;50681;53.334;-6.536;2024-01-10T10:11:57;3.00;;;1.00;;
64353;SDS011;50681;53.334;-6.536;2024-01-10T10:14:28;16.77;;;1.55;;
64353;SDS011;50681;53.334;-6.536;2024-01-10T10:16:55;6.18;;;0.90;;
64353;SDS011;50681;53.334;-6.536;2024-01-10T10:19:38;9.50;;;1.38;;
64353;SDS011;50681;53.334;-6.536;2024-01-10T10:22:07;3.77;;;0.83;;
64353;SDS011;50681;53.334;-6.536;2024-01-10T10:24:50;3.45;;;1.10;;
64353;SDS011;50681;53.334;-6.536;2024-01-10T10:27:37;7.70;;;1.55;;
64353;SDS011;50681;53.334;-6.536;2024-01-10T10:30:13;9.38;;;1.27;;
64353;SDS011;50681;53.334;-6.536;2024-01-10T10:32:42;10.70;;;1.80;;
64353;SDS011;50681;53.334;-6.536;2024-01-10T10:35:10;7.40;;;1.17;;
64353;SDS011;50681;53.334;-6.536;2024-01-10T10:37:36;10.10;;;1.23;;
64353;SDS011;50681;53.334;-6.536;2024-01-10T10:40:08;10.02;;;2.20;;
64353;SDS011;50681;53.334;-6.536;2024-01-10T10:42:40;5.60;;;1.30;;
64353;SDS011;50681;53.334;-6.536;2024-01-10T10:45:20;9.95;;;1.10;;
64353;SDS011;50681;53.334;-6.536;2024-01-10T10:47:58;6.00;;;1.40;;
64353;SDS011;50681;53.334;-6.536;2024-01-10T10:50:28;5.90;;;1.08;;
64353;SDS011;50681;53.334;-6.536;2024-01-10T10:53:02;4.25;;;1.13;;
64353;SDS011;50681;53.334;-6.536;2024-01-10T10:55:28;3.83;;;0.90;;
64353;SDS011;50681;53.334;-6.536;2024-01-10T10:57:55;7.03;;;1.02;;
64353;SDS011;50681;53.334;-6.536;2024-01-10T11:00:21;5.43;;;1.17;;
64353;SDS011;50681;53.334;-6.536;2024-01-10T11:02:52;6.72;;;0.57;;
64353;SDS011;50681;53.334;-6.536;2024-01-10T11:05:18;4.82;;;0.77;;
64353;SDS011;50681;53.334;-6.536;2024-01-10T11:07:45;7.05;;;0.98;;
64353;SDS011;50681;53.334;-6.536;2024-01-10T11:10:11;1.33;;;0.50;;
64353;SDS011;50681;53.334;-6.536;2024-01-10T11:15:47;3.00;;;0.85;;
64353;SDS011;50681;53.334;-6.536;2024-01-10T11:18:48;5.20;;;0.88;;
64353;SDS011;50681;53.334;-6.536;2024-01-10T11:23:58;2.97;;;0.60;;
64353;SDS011;50681;53.334;-6.536;2024-01-10T11:26:24;2.67;;;0.85;;
64353;SDS011;50681;53.334;-6.536;2024-01-10T11:28:51;3.10;;;0.93;;
64353;SDS011;50681;53.334;-6.536;2024-01-10T11:31:28;6.65;;;1.05;;
64353;SDS011;50681;53.334;-6.536;2024-01-10T11:33:55;2.55;;;0.77;;
64353;SDS011;50681;53.334;-6.536;2024-01-10T11:36:30;2.67;;;0.57;;
64353;SDS011;50681;53.334;-6.536;2024-01-10T11:46:48;6.13;;;1.02;;
64353;SDS011;50681;53.334;-6.536;2024-01-10T11:49:15;3.88;;;0.80;;
64353;SDS011;50681;53.334;-6.536;2024-01-10T11:51:42;5.13;;;1.15;;
64353;SDS011;50681;53.334;-6.536;2024-01-10T11:56:38;3.60;;;1.17;;
64353;SDS011;50681;53.334;-6.536;2024-01-10T11:59:07;8.93;;;1.17;;
64353;SDS011;50681;53.334;-6.536;2024-01-10T12:01:36;5.75;;;1.10;;
64353;SDS011;50681;53.334;-6.536;2024-01-10T12:04:04;5.05;;;1.17;;
64353;SDS011;50681;53.334;-6.536;2024-01-10T12:06:31;4.07;;;0.73;;
64353;SDS011;50681;53.334;-6.536;2024-01-10T12:08:57;6.05;;;1.02;;
64353;SDS011;50681;53.334;-6.536;2024-01-10T12:11:32;4.40;;;1.05;;
64353;SDS011;50681;53.334;-6.536;2024-01-10T12:13:58;3.57;;;1.00;;
64353;SDS011;50681;53.334;-6.536;2024-01-10T12:16:23;4.73;;;0.97;;
64353;SDS011;50681;53.334;-6.536;2024-01-10T12:18:49;4.47;;;0.97;;
64353;SDS011;50681;53.334;-6.536;2024-01-10T12:21:16;5.28;;;1.08;;
64353;SDS011;50681;53.334;-6.536;2024-01-10T12:26:09;3.10;;;0.95;;
64353;SDS011;50681;53.334;-6.536;2024-01-10T12:28:39;7.00;;;0.80;;
64353;SDS011;50681;53.334;-6.536;2024-01-10T12:31:05;2.25;;;0.60;;
64353;SDS011;50681;53.334;-6.536;2024-01-10T12:33:32;5.03;;;1.17;;
64353;SDS011;50681;53.334;-6.536;2024-01-10T12:38:34;3.28;;;0.95;;
64353;SDS011;50681;53.334;-6.536;2024-01-10T12:43:34;2.50;;;0.65;;
64353;SDS011;50681;53.334;-6.536;2024-01-10T12:46:06;7.00;;;0.95;;
64353;SDS011;50681;53.334;-6.536;2024-01-10T12:48:35;7.45;;;1.10;;
64353;SDS011;50681;53.334;-6.536;2024-01-10T12:51:12;7.80;;;1.17;;
64353;SDS011;50681;53.334;-6.536;2024-01-10T12:53:42;4.32;;;0.90;;
64353;SDS011;50681;53.334;-6.536;2024-01-10T12:56:08;7.13;;;1.17;;
64353;SDS011;50681;53.334;-6.536;2024-01-10T12:58:39;3.42;;;0.80;;
64353;SDS011;50681;53.334;-6.536;2024-01-10T13:01:08;6.20;;;1.35;;
64353;SDS011;50681;53.334;-6.536;2024-01-10T13:03:37;3.88;;;0.88;;
64353;SDS011;50681;53.334;-6.536;2024-01-10T13:06:23;4.20;;;0.82;;
64353;SDS011;50681;53.334;-6.536;2024-01-10T13:08:54;9.80;;;2.45;;
64353;SDS011;50681;53.334;-6.536;2024-01-10T13:11:19;3.58;;;0.75;;
64353;SDS011;50681;53.334;-6.536;2024-01-10T13:13:45;6.57;;;0.80;;
64353;SDS011;50681;53.334;-6.536;2024-01-10T13:18:42;2.78;;;0.73;;
64353;SDS011;50681;53.334;-6.536;2024-01-10T13:21:07;9.10;;;1.30;;
64353;SDS011;50681;53.334;-6.536;2024-01-10T13:23:33;6.07;;;0.97;;
64353;SDS011;50681;53.334;-6.536;2024-01-10T13:25:59;4.43;;;1.10;;
64353;SDS011;50681;53.334;-6.536;2024-01-10T13:28:25;4.00;;;1.25;;
64353;SDS011;50681;53.334;-6.536;2024-01-10T13:30:52;4.25;;;1.00;;
64353;SDS011;50681;53.334;-6.536;2024-01-10T13:33:21;1.40;;;0.52;;
64353;SDS011;50681;53.334;-6.536;2024-01-10T13:35:47;10.60;;;3.58;;
64353;SDS011;50681;53.334;-6.536;2024-01-10T13:38:12;2.27;;;0.70;;
64353;SDS011;50681;53.334;-6.536;2024-01-10T13:40:38;2.67;;;0.77;;
64353;SDS011;50681;53.334;-6.536;2024-01-10T13:43:03;3.03;;;0.60;;
64353;SDS011;50681;53.334;-6.536;2024-01-10T13:45:29;9.17;;;0.97;;
64353;SDS011;50681;53.334;-6.536;2024-01-10T13:47:54;4.80;;;1.10;;
64353;SDS011;50681;53.334;-6.536;2024-01-10T13:50:20;4.03;;;1.20;;
64353;SDS011;50681;53.334;-6.536;2024-01-10T13:52:46;3.90;;;0.90;;
64353;SDS011;50681;53.334;-6.536;2024-01-10T13:55:11;7.03;;;1.10;;
64353;SDS011;50681;53.334;-6.536;2024-01-10T13:57:37;4.10;;;1.00;;
64353;SDS011;50681;53.334;-6.536;2024-01-10T14:00:02;3.30;;;0.70;;
64353;SDS011;50681;53.334;-6.536;2024-01-10T14:02:29;1.13;;;0.70;;
64353;SDS011;50681;53.334;-6.536;2024-01-10T14:04:54;2.42;;;0.80;;
64353;SDS011;50681;53.334;-6.536;2024-01-10T14:07:22;5.35;;;0.90;;
64353;SDS011;50681;53.334;-6.536;2024-01-10T14:09:49;4.93;;;1.20;;
64353;SDS011;50681;53.334;-6.536;2024-01-10T14:12:14;1.27;;;0.47;;
64353;SDS011;50681;53.334;-6.536;2024-01-10T14:14:40;5.17;;;0.90;;
64353;SDS011;50681;53.334;-6.536;2024-01-10T14:17:05;0.67;;;0.40;;
64353;SDS011;50681;53.334;-6.536;2024-01-10T14:21:59;1.73;;;0.70;;
64353;SDS011;50681;53.334;-6.536;2024-01-10T14:24:24;8.33;;;0.90;;
64353;SDS011;50681;53.334;-6.536;2024-01-10T14:26:50;7.18;;;1.30;;
64353;SDS011;50681;53.334;-6.536;2024-01-10T14:29:16;6.57;;;1.17;;
64353;SDS011;50681;53.334;-6.536;2024-01-10T14:31:41;3.73;;;1.10;;
64353;SDS011;50681;53.334;-6.536;2024-01-10T14:34:07;4.77;;;0.93;;
64353;SDS011;50681;53.334;-6.536;2024-01-10T14:36:33;5.53;;;0.63;;
64353;SDS011;50681;53.334;-6.536;2024-01-10T14:38:58;5.53;;;0.80;;
64353;SDS011;50681;53.334;-6.536;2024-01-10T14:41:24;6.93;;;2.47;;
64353;SDS011;50681;53.334;-6.536;2024-01-10T14:44:05;7.67;;;1.00;;
64353;SDS011;50681;53.334;-6.536;2024-01-10T14:46:31;3.83;;;0.93;;
64353;SDS011;50681;53.334;-6.536;2024-01-10T14:48:57;4.38;;;1.35;;
64353;SDS011;50681;53.334;-6.536;2024-01-10T14:51:22;3.27;;;0.80;;
64353;SDS011;50681;53.334;-6.536;2024-01-10T14:53:48;3.17;;;1.02;;
64353;SDS011;50681;53.334;-6.536;2024-01-10T14:56:16;7.53;;;1.52;;
64353;SDS011;50681;53.334;-6.536;2024-01-10T14:58:42;4.45;;;1.20;;
64353;SDS011;50681;53.334;-6.536;2024-01-10T15:01:08;3.60;;;1.30;;
64353;SDS011;50681;53.334;-6.536;2024-01-10T15:06:00;2.83;;;0.98;;
64353;SDS011;50681;53.334;-6.536;2024-01-10T15:08:25;2.77;;;1.03;;
64353;SDS011;50681;53.334;-6.536;2024-01-10T15:10:55;4.97;;;1.20;;
64353;SDS011;50681;53.334;-6.536;2024-01-10T15:13:21;3.80;;;0.95;;
64353;SDS011;50681;53.334;-6.536;2024-01-10T15:15:46;3.63;;;0.95;;
64353;SDS011;50681;53.334;-6.536;2024-01-10T15:18:12;11.07;;;1.70;;